Time;durP1;ratioP1;P1;durP2;ratioP2;P2;SDS_P1;SDS_P2;PMS_P1;PMS_P2;Temp;Humidity;BMP_temperature;BMP_pressure;BME280_temperature;BME280_humidity;BME280_pressure;Samples;Min_cycle;Max_cycle;Signal;HPM_P1;HPM_P2
2021/06/08 00:01:55;;;;;;;3.97;3.47;;;13.60;99.90;;;;;;5051162;28;20443;-62
2021/06/08 00:04:21;;;;;;;6.50;4.15;;;13.60;99.90;;;;;;5052334;28;20029;-62
2021/06/08 00:06:47;;;;;;;3.72;3.30;;;13.50;99.90;;;;;;5052181;28;20040;-59
2021/06/08 00:09:12;;;;;;;4.15;3.75;;;13.50;99.90;;;;;;5052041;28;20028;-62
2021/06/08 00:11:38;;;;;;;3.45;3.10;;;13.50;99.90;;;;;;5052139;28;20121;-62
2021/06/08 00:14:03;;;;;;;4.15;3.75;;;13.40;99.90;;;;;;5050609;28;20023;-59
2021/06/08 00:16:29;;;;;;;6.43;4.00;;;13.40;99.90;;;;;;5050658;28;20028;-62
2021/06/08 00:18:54;;;;;;;6.82;4.15;;;13.40;99.90;;;;;;5051740;28;20369;-62
2021/06/08 00:21:20;;;;;;;7.05;3.95;;;13.30;99.90;;;;;;5052019;28;20036;-62
2021/06/08 00:23:45;;;;;;;5.32;3.70;;;13.30;99.90;;;;;;5051692;28;20040;-61
2021/06/08 00:26:11;;;;;;;3.63;3.30;;;13.30;99.90;;;;;;5051634;28;20067;-62
2021/06/08 00:28:36;;;;;;;5.85;4.20;;;13.20;99.90;;;;;;5051809;28;20029;-60
2021/06/08 00:31:02;;;;;;;4.88;3.80;;;13.20;99.90;;;;;;5038144;28;20026;-62
2021/06/08 00:33:28;;;;;;;4.63;3.45;;;13.20;99.90;;;;;;5030412;28;20108;-62
2021/06/08 00:35:53;;;;;;;4.18;3.50;;;13.10;99.90;;;;;;5031538;28;20091;-63
2021/06/08 00:38:19;;;;;;;4.13;3.20;;;13.10;99.90;;;;;;5029221;28;20117;-62
2021/06/08 00:40:45;;;;;;;5.35;4.20;;;13.10;99.90;;;;;;5049912;28;20025;-62
2021/06/08 00:43:11;;;;;;;7.20;4.13;;;13.00;99.90;;;;;;5051421;28;20033;-61
2021/06/08 00:45:37;;;;;;;4.20;3.60;;;13.00;99.90;;;;;;5048762;28;20361;-62
2021/06/08 00:48:05;;;;;;;4.85;4.00;;;13.00;99.90;;;;;;5050966;28;20039;-61
2021/06/08 00:50:30;;;;;;;4.63;3.78;;;12.90;99.90;;;;;;5047432;28;20021;-60
2021/06/08 00:52:56;;;;;;;3.88;3.42;;;12.90;99.90;;;;;;5032967;28;20097;-62
2021/06/08 00:55:22;;;;;;;6.88;4.00;;;12.90;99.90;;;;;;5032959;28;20480;-61
2021/06/08 00:57:48;;;;;;;4.30;3.80;;;12.90;99.90;;;;;;5031935;28;20032;-60
2021/06/08 01:00:14;;;;;;;5.10;4.00;;;12.80;99.90;;;;;;5029316;28;20661;-62
2021/06/08 01:02:39;;;;;;;4.70;4.15;;;12.80;99.90;;;;;;5033143;28;20037;-62
2021/06/08 01:05:07;;;;;;;5.78;3.92;;;12.80;99.90;;;;;;5032771;28;20029;-62
2021/06/08 01:07:33;;;;;;;5.40;4.03;;;12.80;99.90;;;;;;5032938;28;20029;-62
2021/06/08 01:10:00;;;;;;;5.82;3.90;;;12.80;99.90;;;;;;5032703;28;20030;-61
2021/06/08 01:12:26;;;;;;;5.03;3.47;;;12.70;99.90;;;;;;5032916;28;20060;-61
2021/06/08 01:14:52;;;;;;;6.07;4.30;;;12.70;99.90;;;;;;5031538;28;20358;-62
2021/06/08 01:17:18;;;;;;;4.53;3.90;;;12.70;99.90;;;;;;5032580;28;20484;-62
2021/06/08 01:19:45;;;;;;;4.95;4.45;;;12.60;99.90;;;;;;5032881;28;20068;-62
2021/06/08 01:22:11;;;;;;;4.43;3.80;;;12.60;99.90;;;;;;5031369;28;20029;-62
2021/06/08 01:24:36;;;;;;;4.78;4.38;;;12.60;99.90;;;;;;5032749;28;20030;-61
2021/06/08 01:27:04;;;;;;;3.95;3.58;;;12.50;99.90;;;;;;5032224;28;20026;-62
2021/06/08 01:29:30;;;;;;;5.18;3.33;;;12.50;99.90;;;;;;5032579;28;20033;-62
2021/06/08 01:31:58;;;;;;;6.07;4.07;;;12.40;99.90;;;;;;5050175;28;20017;-62
2021/06/08 01:34:25;;;;;;;5.80;4.35;;;12.40;99.90;;;;;;5052503;28;20017;-61
2021/06/08 01:36:51;;;;;;;4.50;3.97;;;12.40;99.90;;;;;;5035894;28;20041;-61
2021/06/08 01:39:17;;;;;;;4.00;3.55;;;12.30;99.90;;;;;;5032437;28;20480;-62
2021/06/08 01:41:43;;;;;;;4.05;3.65;;;12.30;99.90;;;;;;5031322;28;20423;-62
2021/06/08 01:44:12;;;;;;;4.47;3.67;;;12.30;99.90;;;;;;5031465;28;20021;-61
2021/06/08 01:46:38;;;;;;;4.57;4.18;;;12.20;99.90;;;;;;5031114;28;20079;-62
2021/06/08 01:49:03;;;;;;;5.13;4.32;;;12.20;99.90;;;;;;5032389;28;20029;-62
2021/06/08 01:51:55;;;;;;;4.82;3.83;;;12.20;99.90;;;;;;5032349;28;20076;-62
2021/06/08 01:54:53;;;;;;;4.93;3.92;;;12.20;99.90;;;;;;5032344;28;20017;-62
2021/06/08 01:57:32;;;;;;;5.05;4.20;;;12.10;99.90;;;;;;5030700;28;20025;-62
2021/06/08 02:00:05;;;;;;;4.85;4.00;;;12.10;99.90;;;;;;5030876;28;20053;-62
2021/06/08 02:02:55;;;;;;;4.10;3.70;;;12.00;99.90;;;;;;5032491;28;20026;-62
2021/06/08 02:05:44;;;;;;;5.72;4.95;;;12.00;99.90;;;;;;5032141;28;20033;-62
2021/06/08 02:08:47;;;;;;;5.78;4.32;;;12.00;99.90;;;;;;5028598;28;20430;-62
2021/06/08 02:11:17;;;;;;;4.28;3.85;;;12.00;99.90;;;;;;5031832;28;20033;-61
2021/06/08 02:14:12;;;;;;;4.80;3.90;;;11.90;99.90;;;;;;5031068;28;20038;-63
2021/06/08 02:16:52;;;;;;;3.58;3.28;;;11.90;99.90;;;;;;5025686;28;20101;-62
2021/06/08 02:19:21;;;;;;;4.95;4.32;;;11.90;99.90;;;;;;5032088;28;20104;-62
2021/06/08 02:21:50;;;;;;;4.40;4.00;;;11.80;99.90;;;;;;5030727;28;20030;-62
2021/06/08 02:24:21;;;;;;;5.82;5.22;;;11.80;99.90;;;;;;5032104;28;20373;-62
2021/06/08 02:26:49;;;;;;;4.63;3.83;;;11.80;99.90;;;;;;5031793;28;20052;-62
2021/06/08 02:29:16;;;;;;;5.97;4.78;;;11.70;99.90;;;;;;5031981;28;20030;-62
2021/06/08 02:31:43;;;;;;;5.57;3.83;;;11.70;99.90;;;;;;5047622;28;20075;-62
2021/06/08 02:34:11;;;;;;;4.03;3.40;;;11.70;99.90;;;;;;5051719;28;20104;-61
2021/06/08 02:36:38;;;;;;;4.88;4.10;;;11.70;99.90;;;;;;5035958;28;20480;-62
2021/06/08 02:39:05;;;;;;;4.82;4.22;;;11.70;99.90;;;;;;5031959;28;20108;-62
2021/06/08 02:41:31;;;;;;;5.53;4.30;;;11.70;99.90;;;;;;5031760;28;20029;-62
2021/06/08 02:43:56;;;;;;;5.78;4.07;;;11.70;99.90;;;;;;5031957;28;20032;-62
2021/06/08 02:46:23;;;;;;;5.15;3.55;;;11.70;99.90;;;;;;5030339;28;20492;-62
2021/06/08 02:48:50;;;;;;;3.80;3.40;;;11.70;99.90;;;;;;5031820;28;20022;-62
2021/06/08 02:51:18;;;;;;;5.72;4.78;;;11.60;99.90;;;;;;5031783;28;20484;-62
2021/06/08 02:53:44;;;;;;;4.15;3.67;;;11.70;99.90;;;;;;5030900;28;20492;-62
2021/06/08 02:56:10;;;;;;;5.68;4.68;;;11.70;99.90;;;;;;5034513;28;20030;-60
2021/06/08 02:58:36;;;;;;;4.78;4.28;;;11.80;99.90;;;;;;5035127;28;20020;-62
2021/06/08 03:01:05;;;;;;;4.57;4.15;;;11.80;99.90;;;;;;5033972;28;20385;-62
2021/06/08 03:03:35;;;;;;;5.10;3.85;;;11.80;99.90;;;;;;5035207;28;20032;-61
2021/06/08 03:06:08;;;;;;;4.93;4.30;;;11.80;99.90;;;;;;5035200;28;20022;-62
2021/06/08 03:08:38;;;;;;;4.90;4.47;;;11.80;99.90;;;;;;5035282;28;20432;-62
2021/06/08 03:11:08;;;;;;;7.18;4.00;;;11.90;99.90;;;;;;5035049;28;20029;-61
2021/06/08 03:13:36;;;;;;;7.10;4.38;;;11.90;99.90;;;;;;5035038;28;20124;-62
2021/06/08 03:16:03;;;;;;;3.97;3.58;;;12.00;99.90;;;;;;5033675;28;20049;-62
2021/06/08 03:18:31;;;;;;;6.15;4.60;;;12.00;99.90;;;;;;5034940;28;20283;-62
2021/06/08 03:21:10;;;;;;;5.25;4.30;;;12.10;99.90;;;;;;5034869;28;20018;-62
2021/06/08 03:23:39;;;;;;;4.00;3.58;;;12.10;99.90;;;;;;5034899;28;20076;-61
2021/06/08 03:26:07;;;;;;;3.75;3.35;;;12.20;99.90;;;;;;5034623;28;20045;-62
2021/06/08 03:28:35;;;;;;;3.92;3.53;;;12.30;99.90;;;;;;5033347;28;20042;-62
2021/06/08 03:31:02;;;;;;;4.25;3.85;;;12.40;99.90;;;;;;5044690;28;20021;-61
2021/06/08 03:33:30;;;;;;;4.97;4.22;;;12.50;99.90;;;;;;5054624;28;20071;-61
2021/06/08 03:35:56;;;;;;;4.82;3.58;;;12.60;99.90;;;;;;5045589;28;20394;-62
2021/06/08 03:38:24;;;;;;;4.82;4.32;;;12.80;99.90;;;;;;5034548;28;20037;-61
2021/06/08 03:40:51;;;;;;;4.80;4.30;;;13.40;99.90;;;;;;5034472;28;20036;-61
2021/06/08 03:43:17;;;;;;;5.20;4.70;;;14.40;99.90;;;;;;5034458;28;20025;-62
2021/06/08 03:45:49;;;;;;;4.95;4.35;;;15.40;99.90;;;;;;5033277;28;20040;-62
2021/06/08 03:48:16;;;;;;;5.45;4.22;;;16.30;99.90;;;;;;5034115;28;20033;-61
2021/06/08 03:50:46;;;;;;;4.85;4.00;;;17.20;99.90;;;;;;5034553;28;20040;-61
2021/06/08 03:53:12;;;;;;;4.93;4.07;;;17.80;96.60;;;;;;5034240;28;20438;-61
2021/06/08 03:55:38;;;;;;;6.43;4.50;;;18.50;94.10;;;;;;5034210;28;20076;-61
2021/06/08 03:58:10;;;;;;;5.95;4.30;;;19.10;92.00;;;;;;5034189;28;20025;-60
2021/06/08 04:00:36;;;;;;;6.40;4.55;;;19.60;90.30;;;;;;5032808;28;20061;-61
2021/06/08 04:03:04;;;;;;;4.93;4.45;;;20.20;87.90;;;;;;5034158;28;20025;-60
2021/06/08 04:05:30;;;;;;;6.97;4.93;;;20.70;85.40;;;;;;5034081;28;20515;-61
2021/06/08 04:07:56;;;;;;;4.60;4.20;;;21.20;83.00;;;;;;5032905;28;20033;-60
2021/06/08 04:10:22;;;;;;;4.10;3.70;;;21.60;80.90;;;;;;5034024;28;20024;-61
2021/06/08 04:12:49;;;;;;;5.90;4.60;;;22.10;78.70;;;;;;5030243;28;20535;-61
2021/06/08 04:15:15;;;;;;;4.63;4.22;;;22.50;76.80;;;;;;5032217;28;20029;-61
2021/06/08 04:17:41;;;;;;;4.72;4.30;;;23.00;75.20;;;;;;5033756;28;20036;-61
2021/06/08 04:20:10;;;;;;;5.60;4.15;;;23.50;73.60;;;;;;5033734;28;20029;-61
2021/06/08 04:22:37;;;;;;;5.65;4.07;;;23.90;71.80;;;;;;5033526;28;20314;-61
2021/06/08 04:25:05;;;;;;;4.60;4.20;;;24.40;70.20;;;;;;5033657;28;20481;-61
2021/06/08 04:27:32;;;;;;;4.47;3.80;;;24.80;69.00;;;;;;5033235;28;20504;-61
2021/06/08 04:29:58;;;;;;;5.28;4.50;;;25.30;68.00;;;;;;5034831;28;20025;-60
2021/06/08 04:32:24;;;;;;;4.63;4.22;;;25.70;66.90;;;;;;5053261;28;20021;-61
2021/06/08 04:34:56;;;;;;;4.53;4.13;;;26.00;65.80;;;;;;5053287;28;20032;-61
2021/06/08 04:37:22;;;;;;;4.47;3.78;;;26.50;62.80;;;;;;5013178;28;20033;-61
2021/06/08 04:39:48;;;;;;;5.40;3.97;;;26.90;63.90;;;;;;5013695;28;20034;-61
2021/06/08 04:42:15;;;;;;;5.40;4.43;;;27.30;62.30;;;;;;5013495;28;20029;-62
2021/06/08 04:44:42;;;;;;;4.38;3.97;;;27.70;62.10;;;;;;5012969;28;20026;-61
2021/06/08 04:47:08;;;;;;;4.55;4.20;;;28.10;61.20;;;;;;5013071;28;20489;-61
2021/06/08 04:49:34;;;;;;;4.60;4.20;;;28.40;60.10;;;;;;5013432;28;20033;-61
2021/06/08 04:51:59;;;;;;;4.32;3.97;;;28.80;59.20;;;;;;5013392;28;20032;-62
2021/06/08 04:54:25;;;;;;;3.97;3.55;;;29.00;58.80;;;;;;5013456;28;20022;-62
2021/06/08 04:56:51;;;;;;;4.85;4.40;;;29.30;57.50;;;;;;5013352;28;20029;-62
2021/06/08 04:59:21;;;;;;;4.70;4.30;;;29.70;56.70;;;;;;5026089;28;20412;-61
2021/06/08 05:01:49;;;;;;;5.07;4.38;;;30.00;56.00;;;;;;5031337;28;20028;-60
2021/06/08 05:04:18;;;;;;;3.65;3.35;;;30.30;55.00;;;;;;5029062;28;20033;-63
2021/06/08 05:06:51;;;;;;;4.85;4.15;;;30.70;54.20;;;;;;5032563;28;20028;-61
2021/06/08 05:09:22;;;;;;;4.38;4.03;;;31.00;54.20;;;;;;5032707;28;20021;-63
2021/06/08 05:11:54;;;;;;;3.80;3.50;;;31.40;51.20;;;;;;5032787;28;20029;-63
2021/06/08 05:14:21;;;;;;;4.00;3.65;;;31.70;52.00;;;;;;5032883;28;20040;-62
2021/06/08 05:16:49;;;;;;;4.03;3.72;;;32.10;52.30;;;;;;5030907;28;20029;-61
2021/06/08 05:19:17;;;;;;;6.00;4.35;;;32.30;51.40;;;;;;5031984;28;20061;-62
2021/06/08 05:21:44;;;;;;;4.25;3.88;;;32.50;50.90;;;;;;5032683;28;20036;-63
2021/06/08 05:24:15;;;;;;;4.20;3.63;;;32.80;50.30;;;;;;5032811;28;20075;-62
2021/06/08 05:26:46;;;;;;;4.20;3.80;;;33.20;48.60;;;;;;5032414;28;20083;-62
2021/06/08 05:29:16;;;;;;;4.05;3.72;;;33.50;48.90;;;;;;5032627;28;20090;-60
2021/06/08 05:31:41;;;;;;;4.55;3.90;;;33.70;48.80;;;;;;5048113;28;20036;-60
2021/06/08 05:34:07;;;;;;;3.92;3.63;;;33.90;48.30;;;;;;5052432;28;20043;-60
2021/06/08 05:36:34;;;;;;;3.22;3.03;;;34.10;47.60;;;;;;5038239;28;20029;-60
2021/06/08 05:39:00;;;;;;;4.25;3.60;;;34.60;47.30;;;;;;5031237;28;20060;-60
2021/06/08 05:41:27;;;;;;;7.47;3.60;;;34.80;46.80;;;;;;5032346;28;20060;-58
2021/06/08 05:43:54;;;;;;;4.72;3.83;;;35.10;46.00;;;;;;5032300;28;20057;-60
2021/06/08 05:46:19;;;;;;;4.10;3.58;;;35.20;45.60;;;;;;5030947;28;20032;-59
2021/06/08 05:48:45;;;;;;;3.85;3.55;;;35.20;45.30;;;;;;5032389;28;20372;-59
2021/06/08 05:51:11;;;;;;;5.20;3.60;;;35.40;45.00;;;;;;5032503;28;20033;-57
2021/06/08 05:53:42;;;;;;;4.30;3.40;;;35.70;44.70;;;;;;5032270;28;20030;-58
2021/06/08 05:56:09;;;;;;;4.85;3.67;;;35.80;44.00;;;;;;5032028;28;20534;-61
2021/06/08 05:58:35;;;;;;;4.38;3.45;;;36.00;43.80;;;;;;5031859;28;20030;-60
2021/06/08 06:01:02;;;;;;;3.72;3.42;;;35.90;43.80;;;;;;5030990;28;20025;-60
2021/06/08 06:03:28;;;;;;;3.45;2.83;;;36.10;43.80;;;;;;5031991;28;20037;-59
2021/06/08 06:05:55;;;;;;;3.22;2.75;;;36.60;43.50;;;;;;5032355;28;20071;-60
2021/06/08 06:08:21;;;;;;;3.33;3.00;;;37.10;43.00;;;;;;5032127;28;20025;-60
2021/06/08 06:10:47;;;;;;;3.65;3.35;;;37.40;42.70;;;;;;5032233;28;20026;-61
2021/06/08 06:13:18;;;;;;;3.55;3.20;;;37.80;42.20;;;;;;5032239;28;20036;-60
2021/06/08 06:15:47;;;;;;;3.45;3.05;;;38.30;41.60;;;;;;5031303;28;20033;-59
2021/06/08 06:18:15;;;;;;;3.38;2.83;;;38.60;41.00;;;;;;5032037;28;20059;-60
2021/06/08 06:20:42;;;;;;;3.53;3.25;;;38.70;41.10;;;;;;5032186;28;20128;-60
2021/06/08 06:23:09;;;;;;;3.35;3.00;;;38.90;40.80;;;;;;5032115;28;20516;-59
2021/06/08 06:25:35;;;;;;;4.75;3.53;;;39.00;40.40;;;;;;5031985;28;20034;-60
2021/06/08 06:28:00;;;;;;;3.55;3.25;;;39.10;40.30;;;;;;5032082;28;20552;-59
2021/06/08 06:30:27;;;;;;;3.97;3.28;;;39.20;40.10;;;;;;5039507;28;20112;-60
2021/06/08 06:32:52;;;;;;;3.88;3.53;;;39.30;39.90;;;;;;5055666;28;20029;-59
2021/06/08 06:35:18;;;;;;;5.00;2.72;;;39.40;39.80;;;;;;5052063;28;20461;-58
2021/06/08 06:37:46;;;;;;;5.28;3.60;;;39.40;39.60;;;;;;5035729;28;20037;-60
2021/06/08 06:40:23;;;;;;;3.42;3.10;;;39.70;39.40;;;;;;5035894;28;20025;-61
2021/06/08 06:42:52;;;;;;;3.50;3.20;;;39.90;38.90;;;;;;5035598;28;20037;-60
2021/06/08 06:45:23;;;;;;;3.60;3.25;;;40.00;38.50;;;;;;5034831;28;20025;-58
2021/06/08 06:47:49;;;;;;;3.33;3.03;;;40.20;37.70;;;;;;5035254;28;20037;-61
2021/06/08 06:50:15;;;;;;;3.28;2.97;;;40.20;38.50;;;;;;5034106;28;20017;-62
2021/06/08 06:52:55;;;;;;;3.65;3.30;;;40.30;38.40;;;;;;5054926;28;20056;-63
2021/06/08 06:55:21;;;;;;;3.25;2.95;;;40.40;37.90;;;;;;5048630;28;20070;-62
2021/06/08 06:57:47;;;;;;;3.22;2.90;;;40.70;37.90;;;;;;5034966;28;20027;-63
2021/06/08 07:00:15;;;;;;;3.28;3.08;;;40.90;37.70;;;;;;5034179;28;20527;-64
2021/06/08 07:02:41;;;;;;;3.40;3.10;;;41.00;37.40;;;;;;5034852;28;20116;-63
2021/06/08 07:05:11;;;;;;;4.85;3.88;;;41.00;37.20;;;;;;5035047;28;20032;-63
2021/06/08 07:07:38;;;;;;;3.10;2.90;;;41.30;36.70;;;;;;5034152;28;20057;-63
2021/06/08 07:10:05;;;;;;;4.03;3.15;;;41.60;36.60;;;;;;5035053;28;20025;-64
2021/06/08 07:12:30;;;;;;;3.88;3.00;;;41.80;36.20;;;;;;5034880;28;20071;-63
2021/06/08 07:14:56;;;;;;;3.92;3.00;;;41.70;36.40;;;;;;5033848;28;20037;-64
2021/06/08 07:17:24;;;;;;;5.70;2.90;;;41.80;36.50;;;;;;5034692;28;20493;-62
2021/06/08 07:19:52;;;;;;;5.32;3.20;;;42.20;36.20;;;;;;5034432;28;20414;-61
2021/06/08 07:22:19;;;;;;;6.07;3.20;;;42.40;35.50;;;;;;5034921;28;20018;-61
2021/06/08 07:24:45;;;;;;;6.35;2.97;;;42.50;35.50;;;;;;5034658;28;20104;-61
2021/06/08 07:27:13;;;;;;;3.75;3.08;;;42.70;35.30;;;;;;5034647;28;20109;-60
2021/06/08 07:29:40;;;;;;;2.85;2.65;;;42.70;35.00;;;;;;5033859;28;20056;-60
2021/06/08 07:32:11;;;;;;;2.90;2.70;;;42.80;34.80;;;;;;5054651;28;20033;-61
2021/06/08 07:34:44;;;;;;;3.13;2.60;;;42.90;34.90;;;;;;5053965;28;20495;-60
2021/06/08 07:37:16;;;;;;;3.10;2.90;;;43.10;34.00;;;;;;5035359;28;20499;-60
2021/06/08 07:39:54;;;;;;;2.80;2.50;;;43.40;34.30;;;;;;5034550;28;20030;-61
2021/06/08 07:42:25;;;;;;;2.58;2.40;;;43.70;33.90;;;;;;5034575;28;20030;-61
2021/06/08 07:45:01;;;;;;;3.20;2.55;;;43.80;34.00;;;;;;5033107;28;20495;-61
2021/06/08 07:47:31;;;;;;;2.78;2.58;;;43.50;33.30;;;;;;5034484;28;20029;-61
2021/06/08 07:49:57;;;;;;;3.60;2.95;;;43.50;34.20;;;;;;5034340;28;20049;-61
2021/06/08 07:52:24;;;;;;;2.75;2.55;;;43.30;33.60;;;;;;5033384;28;20075;-61
2021/06/08 07:54:51;;;;;;;2.40;2.17;;;43.50;32.90;;;;;;5034285;28;20017;-59
2021/06/08 07:57:18;;;;;;;2.90;2.53;;;43.70;33.40;;;;;;5034273;28;20412;-61
2021/06/08 07:59:44;;;;;;;2.45;2.20;;;43.90;33.10;;;;;;5033003;28;20140;-60
2021/06/08 08:02:11;;;;;;;4.90;2.40;;;44.20;33.00;;;;;;5034113;28;20125;-60
2021/06/08 08:04:49;;;;;;;3.80;2.67;;;44.50;32.90;;;;;;5034026;28;20108;-62
2021/06/08 08:07:23;;;;;;;3.65;2.60;;;44.80;32.70;;;;;;5034018;28;20022;-60
2021/06/08 08:09:50;;;;;;;2.47;2.07;;;44.80;32.50;;;;;;5033320;28;20026;-60
2021/06/08 08:12:16;;;;;;;2.55;2.28;;;44.70;32.30;;;;;;5033043;28;20402;-61
2021/06/08 08:14:43;;;;;;;3.35;2.28;;;44.80;32.20;;;;;;5032888;28;20100;-60
2021/06/08 08:17:11;;;;;;;2.55;2.30;;;44.70;32.30;;;;;;5033973;28;20476;-60
2021/06/08 08:19:41;;;;;;;5.15;2.83;;;44.80;31.30;;;;;;5033341;28;20029;-61
2021/06/08 08:22:07;;;;;;;2.67;2.08;;;44.80;31.60;;;;;;5033906;28;20030;-61
2021/06/08 08:24:33;;;;;;;2.50;2.13;;;44.60;31.00;;;;;;5033618;28;20033;-60
2021/06/08 08:27:01;;;;;;;2.38;2.05;;;44.70;31.20;;;;;;5033635;28;20029;-58
2021/06/08 08:29:27;;;;;;;2.28;2.00;;;44.70;31.20;;;;;;5033665;28;20013;-58
2021/06/08 08:31:52;;;;;;;2.08;1.88;;;44.80;31.20;;;;;;5051086;28;20432;-57
2021/06/08 08:34:18;;;;;;;2.58;2.45;;;45.00;31.20;;;;;;5053385;28;20520;-55
2021/06/08 08:36:43;;;;;;;2.42;2.20;;;44.90;30.90;;;;;;5037861;28;20080;-57
2021/06/08 08:39:10;;;;;;;2.40;2.20;;;44.90;30.40;;;;;;5033284;28;20485;-56
2021/06/08 08:41:36;;;;;;;2.45;2.25;;;44.60;30.10;;;;;;5033579;28;20033;-58
2021/06/08 08:44:03;;;;;;;2.38;2.03;;;44.40;30.00;;;;;;5033407;28;20022;-56
2021/06/08 08:46:29;;;;;;;2.30;2.10;;;44.40;30.00;;;;;;5032558;28;20538;-57
2021/06/08 08:48:56;;;;;;;1.90;1.80;;;44.20;30.00;;;;;;5033223;28;20025;-58
2021/06/08 08:51:24;;;;;;;2.17;2.00;;;44.40;30.20;;;;;;5033317;28;20021;-57
2021/06/08 08:53:53;;;;;;;2.17;2.00;;;44.50;30.00;;;;;;5032594;28;20476;-58
2021/06/08 08:56:24;;;;;;;2.95;1.98;;;44.50;29.40;;;;;;5033231;28;20022;-57
2021/06/08 08:58:49;;;;;;;2.33;1.90;;;44.40;29.50;;;;;;5032941;28;20424;-56
2021/06/08 09:01:15;;;;;;;2.40;2.20;;;44.00;29.80;;;;;;5032373;28;20013;-57
2021/06/08 09:03:40;;;;;;;2.50;2.35;;;43.20;30.00;;;;;;5033024;28;20021;-57
2021/06/08 09:06:07;;;;;;;2.40;2.20;;;42.60;30.20;;;;;;5032866;28;20018;-57
2021/06/08 09:08:33;;;;;;;2.25;2.15;;;42.40;30.50;;;;;;5032766;28;20084;-57
2021/06/08 09:11:00;;;;;;;2.28;2.08;;;42.90;30.20;;;;;;5032847;28;20051;-57
2021/06/08 09:13:26;;;;;;;3.80;2.53;;;42.90;30.30;;;;;;5030957;28;20030;-57
2021/06/08 09:15:53;;;;;;;2.55;2.35;;;42.60;31.20;;;;;;5031926;28;20026;-57
2021/06/08 09:18:21;;;;;;;2.30;2.20;;;42.40;30.40;;;;;;5032822;28;20065;-48
2021/06/08 09:20:48;;;;;;;4.28;2.72;;;42.30;30.50;;;;;;5032649;28;20025;-49
2021/06/08 09:23:19;;;;;;;2.60;2.40;;;41.90;30.40;;;;;;5031499;28;20036;-58
2021/06/08 09:25:47;;;;;;;2.63;2.42;;;41.50;31.10;;;;;;5032669;28;20041;-58
2021/06/08 09:28:26;;;;;;;2.42;2.25;;;41.60;31.20;;;;;;5032827;28;20044;-60
2021/06/08 09:31:19;;;;;;;2.90;2.67;;;41.80;31.50;;;;;;5041843;28;20032;-58
2021/06/08 09:33:52;;;;;;;3.30;3.00;;;41.40;31.60;;;;;;5052511;28;20029;-58
2021/06/08 09:36:27;;;;;;;3.90;2.90;;;41.50;31.50;;;;;;5040446;28;20021;-58
2021/06/08 09:38:59;;;;;;;2.70;2.50;;;41.30;31.60;;;;;;5032499;28;20472;-58
2021/06/08 09:41:49;;;;;;;3.17;2.92;;;40.70;32.00;;;;;;5032576;28;20028;-58
2021/06/08 09:44:17;;;;;;;3.05;2.70;;;39.90;32.20;;;;;;5032534;28;20021;-58
2021/06/08 09:46:48;;;;;;;4.32;2.70;;;39.40;33.20;;;;;;5030153;28;20300;-58
2021/06/08 09:49:19;;;;;;;3.00;2.80;;;39.90;32.90;;;;;;5032369;28;20045;-57
2021/06/08 09:51:58;;;;;;;4.65;2.95;;;39.90;32.90;;;;;;5031092;28;20025;-58
2021/06/08 09:54:33;;;;;;;3.83;3.53;;;39.60;33.30;;;;;;5030847;28;20036;-58
2021/06/08 09:57:22;;;;;;;4.22;2.92;;;38.60;33.60;;;;;;5031023;28;20431;-57
2021/06/08 09:59:58;;;;;;;5.05;3.03;;;37.90;34.50;;;;;;5030909;28;20120;-58
2021/06/08 10:02:47;;;;;;;4.78;3.30;;;37.10;34.60;;;;;;5032373;28;20032;-55
2021/06/08 10:05:19;;;;;;;4.82;3.22;;;36.50;36.20;;;;;;5033832;28;20017;-57
2021/06/08 10:07:46;;;;;;;5.00;3.65;;;36.00;36.50;;;;;;5036181;28;20052;-58
2021/06/08 10:10:22;;;;;;;3.42;3.13;;;35.30;36.90;;;;;;5036306;28;20338;-58
2021/06/08 10:12:59;;;;;;;3.42;3.13;;;35.00;37.50;;;;;;5034892;28;20017;-57
2021/06/08 10:15:31;;;;;;;3.47;3.25;;;34.70;37.60;;;;;;5035237;28;20400;-56
2021/06/08 10:18:03;;;;;;;3.83;3.42;;;34.50;37.90;;;;;;5036185;28;20026;-57
2021/06/08 10:20:35;;;;;;;3.35;3.10;;;34.20;37.80;;;;;;5034979;28;20071;-57
2021/06/08 10:23:23;;;;;;;4.85;3.00;;;33.60;37.70;;;;;;5035958;28;20362;-57
2021/06/08 10:25:54;;;;;;;4.22;3.53;;;33.20;38.50;;;;;;5034725;28;20144;-57
2021/06/08 10:28:21;;;;;;;5.55;3.83;;;33.00;38.90;;;;;;5036127;28;20068;-57
2021/06/08 10:30:48;;;;;;;5.65;3.22;;;32.70;39.30;;;;;;5044246;28;20021;-58
2021/06/08 10:33:13;;;;;;;5.15;3.78;;;32.50;39.60;;;;;;5056091;28;20028;-57
2021/06/08 10:35:40;;;;;;;4.10;3.40;;;32.20;40.10;;;;;;5049192;28;20079;-57
2021/06/08 10:38:07;;;;;;;4.40;3.28;;;32.10;40.50;;;;;;5035572;28;20515;-57
2021/06/08 10:40:34;;;;;;;3.70;2.97;;;32.30;40.00;;;;;;5035792;28;20028;-57
2021/06/08 10:43:00;;;;;;;3.80;3.50;;;32.50;39.90;;;;;;5034315;28;20468;-58
2021/06/08 10:45:37;;;;;;;3.67;3.35;;;32.50;39.90;;;;;;5034668;28;20028;-57
2021/06/08 10:48:19;;;;;;;4.57;3.33;;;32.50;39.90;;;;;;5035490;28;20030;-57
2021/06/08 10:50:49;;;;;;;5.35;3.17;;;32.30;41.00;;;;;;5035275;28;20507;-57
2021/06/08 10:53:33;;;;;;;3.83;3.53;;;32.00;41.10;;;;;;5035322;28;20441;-57
2021/06/08 10:56:17;;;;;;;3.85;3.13;;;32.00;42.50;;;;;;5033989;28;20045;-57
2021/06/08 10:58:51;;;;;;;3.25;2.95;;;31.90;40.90;;;;;;5035199;28;20061;-57
2021/06/08 11:01:34;;;;;;;7.03;3.60;;;31.80;40.90;;;;;;5031916;28;20456;-57
2021/06/08 11:04:03;;;;;;;6.22;3.95;;;31.50;42.10;;;;;;5032752;28;20031;-55
2021/06/08 11:06:50;;;;;;;4.85;4.05;;;31.10;42.10;;;;;;5033959;28;20026;-57
2021/06/08 11:09:26;;;;;;;4.65;3.50;;;30.90;42.90;;;;;;5033696;28;20029;-57
2021/06/08 11:12:00;;;;;;;3.22;2.92;;;30.40;43.10;;;;;;5034009;28;20013;-57
2021/06/08 11:14:37;;;;;;;3.63;3.33;;;30.20;43.10;;;;;;5033863;28;20492;-57
2021/06/08 11:17:11;;;;;;;4.07;2.63;;;30.10;43.40;;;;;;5033455;28;20103;-57
2021/06/08 11:19:51;;;;;;;3.83;3.35;;;30.20;43.70;;;;;;5033848;28;20040;-57
2021/06/08 11:22:21;;;;;;;4.20;3.28;;;30.40;43.80;;;;;;5033814;28;20033;-57
2021/06/08 11:24:51;;;;;;;3.30;2.92;;;30.50;43.40;;;;;;5030139;28;20075;-59
2021/06/08 11:27:18;;;;;;;3.45;3.13;;;30.50;42.90;;;;;;5033496;28;20022;-58
2021/06/08 11:29:55;;;;;;;4.75;3.63;;;30.70;42.70;;;;;;5033223;28;20074;-58
2021/06/08 11:32:30;;;;;;;3.70;3.40;;;30.50;43.10;;;;;;5052105;28;20392;-58
2021/06/08 11:35:40;;;;;;;4.63;3.92;;;30.50;43.80;;;;;;5052772;28;20022;-60
2021/06/08 11:38:25;;;;;;;3.80;3.50;;;30.20;44.30;;;;;;5011551;28;20150;-60
2021/06/08 11:40:50;;;;;;;3.00;2.80;;;30.00;44.10;;;;;;5032931;28;20042;-58
2021/06/08 11:43:16;;;;;;;3.47;3.17;;;30.00;43.70;;;;;;5033436;28;20143;-57
2021/06/08 11:45:44;;;;;;;4.43;3.80;;;30.10;43.80;;;;;;5032759;28;20026;-59
2021/06/08 11:48:32;;;;;;;3.13;2.83;;;30.00;44.00;;;;;;5033287;28;20032;-59
2021/06/08 11:50:58;;;;;;;4.72;3.70;;;30.10;43.90;;;;;;5031896;28;20058;-59
2021/06/08 11:53:25;;;;;;;4.57;3.58;;;30.10;43.30;;;;;;5033041;28;20037;-60
2021/06/08 11:56:11;;;;;;;4.10;3.55;;;30.00;43.80;;;;;;5033123;28;20373;-59
2021/06/08 11:58:39;;;;;;;3.33;3.13;;;30.00;43.90;;;;;;5031294;28;51051;-59
2021/06/08 12:01:36;;;;;;;4.32;3.45;;;29.90;44.10;;;;;;5032138;28;20066;-59
2021/06/08 12:04:02;;;;;;;3.58;3.28;;;29.80;44.50;;;;;;5034146;28;20052;-59
2021/06/08 12:07:05;;;;;;;6.10;3.72;;;29.80;45.10;;;;;;5033777;28;20061;-59
2021/06/08 12:09:56;;;;;;;3.63;3.15;;;29.60;45.30;;;;;;5033875;28;20021;-58
2021/06/08 12:12:21;;;;;;;4.13;3.72;;;29.40;45.20;;;;;;5033642;28;20033;-60
2021/06/08 12:14:53;;;;;;;5.95;3.40;;;29.30;45.50;;;;;;5030062;28;20043;-50
2021/06/08 12:17:21;;;;;;;5.93;3.92;;;29.20;45.60;;;;;;5033794;28;20029;-52
2021/06/08 12:19:46;;;;;;;3.97;3.63;;;29.10;45.90;;;;;;5033655;28;20256;-62
2021/06/08 12:22:19;;;;;;;3.47;3.15;;;28.80;45.80;;;;;;5033752;28;20048;-57
2021/06/08 12:24:53;;;;;;;3.30;3.00;;;28.60;46.30;;;;;;5033580;28;20117;-55
2021/06/08 12:27:19;;;;;;;4.05;3.40;;;28.40;46.30;;;;;;5032723;28;20052;-52
2021/06/08 12:29:53;;;;;;;4.55;3.38;;;28.40;46.30;;;;;;5033699;28;20030;-53
2021/06/08 12:32:18;;;;;;;4.20;3.10;;;28.40;46.30;;;;;;5053503;28;20089;-51
2021/06/08 12:34:48;;;;;;;5.53;4.03;;;28.60;46.10;;;;;;5053491;28;20496;-50
2021/06/08 12:37:23;;;;;;;3.38;3.08;;;28.60;45.80;;;;;;5033675;28;20037;-51
2021/06/08 12:39:54;;;;;;;3.72;3.42;;;28.60;46.00;;;;;;5032136;28;20056;-53
2021/06/08 12:42:21;;;;;;;3.40;3.10;;;28.60;45.70;;;;;;5033408;28;20025;-53
2021/06/08 12:44:47;;;;;;;4.75;3.25;;;28.80;45.70;;;;;;5031236;28;20033;-55
2021/06/08 12:47:14;;;;;;;3.35;2.97;;;28.90;45.60;;;;;;5033080;28;20025;-51
2021/06/08 12:49:41;;;;;;;4.05;3.00;;;29.20;45.50;;;;;;5033144;28;20080;-53
2021/06/08 12:52:08;;;;;;;3.92;3.10;;;29.20;45.30;;;;;;5031209;28;20516;-54
2021/06/08 12:54:40;;;;;;;5.07;3.35;;;29.30;45.20;;;;;;5033320;28;20025;-53
2021/06/08 12:57:11;;;;;;;3.67;3.20;;;29.30;45.30;;;;;;5032894;28;20029;-51
2021/06/08 12:59:48;;;;;;;3.40;3.10;;;29.50;45.20;;;;;;5032098;28;20045;-53
2021/06/08 13:02:16;;;;;;;3.47;3.17;;;29.70;45.00;;;;;;5032869;28;20051;-50